»·PEaware :: SKY43 KFHR-KORS

SKY43 :: KFHR-KORS

FLIGHT INFORMATION

Flight Status: Arrived
Operator:
Sky High Charters
More flights by this operator :: More flights under this callsign
Pilot: Justin C. (30559)
Aircraft: CESSNA 172 SKYHAWK
(C172)
More flights by this aircraft type
Origin: KFHR Friday Harbor
United States
Destination: KORS Orcas Island
United States
More flights between these airports :: More routes between these airports
Route: FHR CANDL APDON
File this flight plan on PilotEdge
Remarks: ODP OUT OF KFHR
Altitude:
(Current/Filed)
5,000ft
Speed:
(Current/Filed)
110kts
Departed: 05-Aug-20 11:50 AM
Arrived: 05-Aug-20 12:28 PM
Distance/Time
Traveled:
12nm/0:37
Distance/Time
To Go:
Arrived

Flight Plot

Page will automatically refresh every two minutes.

Flight plan parsing failed; only flown route is shown


Map Options




Map Legend


Flown Route
Filed Route
Departure Airport
Arrival Airport
Navaid (VOR, NDB)
Fix

Horizontal Profiles

Position Reports

Time Latitude Longitude Heading Altitude Ground
Speed
05-Aug-20 11:42 48.524717 -123.025951 347 114ft 0kts
05-Aug-20 11:43 48.524717 -123.025951 347 114ft 0kts
05-Aug-20 11:44 48.525066 -123.025966 357 115ft 10kts
05-Aug-20 11:45 48.526575 -123.025518 95 117ft 0kts
05-Aug-20 11:46 48.526575 -123.025518 95 117ft 0kts
05-Aug-20 11:47 48.526575 -123.025518 95 117ft 0kts
05-Aug-20 11:48 48.525926 -123.024645 178 111ft 31kts
05-Aug-20 11:49 48.508281 -123.024376 180 813ft 71kts
05-Aug-20 11:50 48.487153 -123.025255 180 1610ft 79kts
05-Aug-20 11:51 48.478440 -123.007370 30 2448ft 85kts
05-Aug-20 11:52 48.497424 -123.017600 318 3262ft 68kts
05-Aug-20 11:53 48.517267 -123.027274 24 3690ft 103kts
05-Aug-20 11:54 48.512882 -122.996718 174 4130ft 96kts
05-Aug-20 11:55 48.486445 -122.995028 177 4719ft 94kts
05-Aug-20 11:56 48.472264 -123.025680 265 5251ft 101kts
05-Aug-20 11:57 48.498034 -123.028725 68 5014ft 140kts
05-Aug-20 11:58 48.506366 -122.975653 68 4994ft 122kts
05-Aug-20 11:59 48.527154 -122.933891 48 4989ft 127kts
05-Aug-20 12:00 48.551299 -122.894211 48 4984ft 129kts
05-Aug-20 12:01 48.575900 -122.853958 48 4982ft 129kts
05-Aug-20 12:02 48.600530 -122.813607 48 4982ft 130kts
05-Aug-20 12:03 48.624215 -122.770990 49 4980ft 131kts
05-Aug-20 12:04 48.658821 -122.757536 358 4977ft 133kts
05-Aug-20 12:05 48.697642 -122.755314 0 4737ft 145kts
05-Aug-20 12:06 48.738875 -122.752625 359 4241ft 149kts
05-Aug-20 12:07 48.779538 -122.750067 2 4021ft 130kts
05-Aug-20 12:08 48.814180 -122.750847 3 4012ft 119kts
05-Aug-20 12:09 48.846652 -122.749074 4 4013ft 117kts
05-Aug-20 12:10 48.879238 -122.747001 4 4013ft 116kts
05-Aug-20 12:11 48.912044 -122.744660 4 4014ft 116kts
05-Aug-20 12:12 48.944423 -122.742434 24 4002ft 114kts
05-Aug-20 12:13 48.937937 -122.714245 191 4002ft 112kts
05-Aug-20 12:14 48.910728 -122.739108 207 4014ft 114kts
05-Aug-20 12:15 48.909615 -122.777884 345 3608ft 126kts
05-Aug-20 12:16 48.941465 -122.762542 25 3099ft 119kts
05-Aug-20 12:17 48.955827 -122.728454 132 2554ft 115kts
05-Aug-20 12:18 48.925891 -122.741067 205 2095ft 116kts
05-Aug-20 12:19 48.896623 -122.757973 200 2104ft 112kts
05-Aug-20 12:20 48.868756 -122.781540 205 1990ft 117kts
05-Aug-20 12:21 48.841069 -122.806362 203 1929ft 110kts
05-Aug-20 12:22 48.815000 -122.829602 203 1927ft 107kts
05-Aug-20 12:23 48.789404 -122.852435 204 1925ft 104kts
05-Aug-20 12:24 48.764150 -122.875031 206 1538ft 101kts
05-Aug-20 12:25 48.740479 -122.896769 207 756ft 96kts
05-Aug-20 12:26 48.721274 -122.910443 184 213ft 61kts
05-Aug-20 12:27 48.708519 -122.910602 179 26ft 18kts
05-Aug-20 12:28 48.708959 -122.909987 0 25ft 8kts
05-Aug-20 12:29 48.709589 -122.909442 267 25ft 0kts
05-Aug-20 12:30 48.709589 -122.909441 267 25ft 0kts
05-Aug-20 12:31 48.709590 -122.909445 280 25ft 0kts
05-Aug-20 12:32 48.709590 -122.909445 280 25ft 0kts
05-Aug-20 12:33 48.709590 -122.909445 280 25ft 0kts
05-Aug-20 12:34 48.709590 -122.909445 280 25ft 0kts
05-Aug-20 12:35 48.709590 -122.909445 280 25ft 0kts
05-Aug-20 12:36 48.709590 -122.909445 280 25ft 0kts
05-Aug-20 12:37 48.709590 -122.909445 280 25ft 0kts
05-Aug-20 12:38 48.709590 -122.909445 280 25ft 0kts
05-Aug-20 12:39 48.709590 -122.909445 280 25ft 0kts

Navigation Log

Ident Type
Flight plan parsing failed, navigation log unavailable